sensor_id;sensor_type;location;lat;lon;timestamp;temperature;humidity
16503;DHT22;53067;48.114;11.694;2022-12-29T00:01:10;5.30;70.90
16503;DHT22;53067;48.114;11.694;2022-12-29T00:03:38;5.30;71.60
16503;DHT22;53067;48.114;11.694;2022-12-29T00:06:06;5.30;70.70
16503;DHT22;53067;48.114;11.694;2022-12-29T00:08:33;5.30;70.40
16503;DHT22;53067;48.114;11.694;2022-12-29T00:11:18;5.40;70.40
16503;DHT22;53067;48.114;11.694;2022-12-29T00:13:46;5.40;70.20
16503;DHT22;53067;48.114;11.694;2022-12-29T00:16:33;5.40;70.10
16503;DHT22;53067;48.114;11.694;2022-12-29T00:19:02;5.40;70.30
16503;DHT22;53067;48.114;11.694;2022-12-29T00:21:30;5.40;70.60
16503;DHT22;53067;48.114;11.694;2022-12-29T00:27:23;5.40;70.30
16503;DHT22;53067;48.114;11.694;2022-12-29T00:30:11;5.40;69.70
16503;DHT22;53067;48.114;11.694;2022-12-29T00:32:56;5.40;69.80
16503;DHT22;53067;48.114;11.694;2022-12-29T00:35:50;5.40;69.60
16503;DHT22;53067;48.114;11.694;2022-12-29T00:38:13;5.40;69.80
16503;DHT22;53067;48.114;11.694;2022-12-29T00:40:58;5.40;69.80
16503;DHT22;53067;48.114;11.694;2022-12-29T00:43:44;5.40;69.50
16503;DHT22;53067;48.114;11.694;2022-12-29T00:46:30;5.40;69.20
16503;DHT22;53067;48.114;11.694;2022-12-29T00:48:57;5.40;69.10
16503;DHT22;53067;48.114;11.694;2022-12-29T00:51:43;5.40;69.20
16503;DHT22;53067;48.114;11.694;2022-12-29T00:54:11;5.40;68.80
16503;DHT22;53067;48.114;11.694;2022-12-29T00:56:38;5.40;68.90
16503;DHT22;53067;48.114;11.694;2022-12-29T00:59:08;5.40;68.80
16503;DHT22;53067;48.114;11.694;2022-12-29T01:01:37;5.40;68.40
16503;DHT22;53067;48.114;11.694;2022-12-29T01:04:05;5.50;68.40
16503;DHT22;53067;48.114;11.694;2022-12-29T01:06:35;5.50;68.30
16503;DHT22;53067;48.114;11.694;2022-12-29T01:09:03;5.50;68.80
16503;DHT22;53067;48.114;11.694;2022-12-29T01:11:50;5.50;68.20
16503;DHT22;53067;48.114;11.694;2022-12-29T01:14:19;5.50;68.20
16503;DHT22;53067;48.114;11.694;2022-12-29T01:16:47;5.50;67.90
16503;DHT22;53067;48.114;11.694;2022-12-29T01:19:15;5.50;67.90
16503;DHT22;53067;48.114;11.694;2022-12-29T01:21:43;5.50;68.00
16503;DHT22;53067;48.114;11.694;2022-12-29T01:24:11;5.50;67.80
16503;DHT22;53067;48.114;11.694;2022-12-29T01:26:39;5.50;67.80
16503;DHT22;53067;48.114;11.694;2022-12-29T01:29:07;5.50;67.70
16503;DHT22;53067;48.114;11.694;2022-12-29T01:31:34;5.50;68.20
16503;DHT22;53067;48.114;11.694;2022-12-29T01:34:02;5.50;67.60
16503;DHT22;53067;48.114;11.694;2022-12-29T01:36:29;5.50;67.70
16503;DHT22;53067;48.114;11.694;2022-12-29T01:38:57;5.50;67.40
16503;DHT22;53067;48.114;11.694;2022-12-29T01:41:24;5.50;68.50
16503;DHT22;53067;48.114;11.694;2022-12-29T01:43:55;5.50;67.80
16503;DHT22;53067;48.114;11.694;2022-12-29T01:46:35;5.50;67.70
16503;DHT22;53067;48.114;11.694;2022-12-29T01:52:04;5.40;67.60
16503;DHT22;53067;48.114;11.694;2022-12-29T01:54:39;5.50;67.60
16503;DHT22;53067;48.114;11.694;2022-12-29T01:57:09;5.40;67.50
16503;DHT22;53067;48.114;11.694;2022-12-29T01:59:46;5.50;67.30
16503;DHT22;53067;48.114;11.694;2022-12-29T02:02:08;5.50;67.30
16503;DHT22;53067;48.114;11.694;2022-12-29T02:04:38;5.50;67.30
16503;DHT22;53067;48.114;11.694;2022-12-29T02:07:08;5.50;67.10
16503;DHT22;53067;48.114;11.694;2022-12-29T02:09:36;5.50;66.90
16503;DHT22;53067;48.114;11.694;2022-12-29T02:12:04;5.50;67.90
16503;DHT22;53067;48.114;11.694;2022-12-29T02:14:32;5.60;67.10
16503;DHT22;53067;48.114;11.694;2022-12-29T02:28:47;5.50;67.10
16503;DHT22;53067;48.114;11.694;2022-12-29T02:31:39;5.50;67.00
16503;DHT22;53067;48.114;11.694;2022-12-29T02:39:52;5.50;66.80
16503;DHT22;53067;48.114;11.694;2022-12-29T02:42:47;5.50;67.30
16503;DHT22;53067;48.114;11.694;2022-12-29T02:48:24;5.50;67.10
16503;DHT22;53067;48.114;11.694;2022-12-29T02:51:11;5.60;66.90
16503;DHT22;53067;48.114;11.694;2022-12-29T02:53:38;5.60;66.70
16503;DHT22;53067;48.114;11.694;2022-12-29T02:56:24;5.60;66.60
16503;DHT22;53067;48.114;11.694;2022-12-29T02:58:52;5.60;66.70
16503;DHT22;53067;48.114;11.694;2022-12-29T03:07:01;5.60;66.20
16503;DHT22;53067;48.114;11.694;2022-12-29T03:09:54;5.70;65.90
16503;DHT22;53067;48.114;11.694;2022-12-29T03:12:38;5.70;66.10
16503;DHT22;53067;48.114;11.694;2022-12-29T03:15:39;5.60;66.00
16503;DHT22;53067;48.114;11.694;2022-12-29T03:18:25;5.60;66.10
16503;DHT22;53067;48.114;11.694;2022-12-29T03:20:55;5.60;66.10
16503;DHT22;53067;48.114;11.694;2022-12-29T03:23:25;5.60;65.80
16503;DHT22;53067;48.114;11.694;2022-12-29T03:25:55;5.70;65.90
16503;DHT22;53067;48.114;11.694;2022-12-29T03:28:29;5.60;66.10
16503;DHT22;53067;48.114;11.694;2022-12-29T03:30:58;5.70;65.90
16503;DHT22;53067;48.114;11.694;2022-12-29T03:33:27;5.70;65.50
16503;DHT22;53067;48.114;11.694;2022-12-29T03:36:04;5.70;65.60
16503;DHT22;53067;48.114;11.694;2022-12-29T03:41:26;5.80;65.30
16503;DHT22;53067;48.114;11.694;2022-12-29T03:43:54;5.80;64.90
16503;DHT22;53067;48.114;11.694;2022-12-29T03:46:22;5.80;64.70
16503;DHT22;53067;48.114;11.694;2022-12-29T03:48:50;5.90;64.40
16503;DHT22;53067;48.114;11.694;2022-12-29T03:51:17;5.90;64.90
16503;DHT22;53067;48.114;11.694;2022-12-29T03:53:45;6.00;64.30
16503;DHT22;53067;48.114;11.694;2022-12-29T03:56:12;6.00;63.70
16503;DHT22;53067;48.114;11.694;2022-12-29T03:58:40;6.10;63.40
16503;DHT22;53067;48.114;11.694;2022-12-29T04:01:08;6.20;63.20
16503;DHT22;53067;48.114;11.694;2022-12-29T04:03:35;6.20;63.10
16503;DHT22;53067;48.114;11.694;2022-12-29T04:06:03;6.30;62.80
16503;DHT22;53067;48.114;11.694;2022-12-29T04:08:30;6.20;62.70
16503;DHT22;53067;48.114;11.694;2022-12-29T04:10:58;6.30;62.80
16503;DHT22;53067;48.114;11.694;2022-12-29T04:13:25;6.30;62.40
16503;DHT22;53067;48.114;11.694;2022-12-29T04:15:53;6.40;62.40
16503;DHT22;53067;48.114;11.694;2022-12-29T04:18:20;6.40;62.30
16503;DHT22;53067;48.114;11.694;2022-12-29T04:20:48;6.50;62.20
16503;DHT22;53067;48.114;11.694;2022-12-29T04:23:30;6.50;62.40
16503;DHT22;53067;48.114;11.694;2022-12-29T04:25:59;6.50;62.70
16503;DHT22;53067;48.114;11.694;2022-12-29T04:28:27;6.60;62.40
16503;DHT22;53067;48.114;11.694;2022-12-29T04:30:55;6.60;61.80
16503;DHT22;53067;48.114;11.694;2022-12-29T04:33:23;6.70;62.00
16503;DHT22;53067;48.114;11.694;2022-12-29T04:35:51;6.60;61.90
16503;DHT22;53067;48.114;11.694;2022-12-29T04:38:23;6.70;61.90
16503;DHT22;53067;48.114;11.694;2022-12-29T04:40:51;6.70;61.80
16503;DHT22;53067;48.114;11.694;2022-12-29T04:43:19;6.80;61.80
16503;DHT22;53067;48.114;11.694;2022-12-29T04:45:48;6.80;61.80
16503;DHT22;53067;48.114;11.694;2022-12-29T04:48:16;6.80;61.70
16503;DHT22;53067;48.114;11.694;2022-12-29T04:50:46;6.80;61.50
16503;DHT22;53067;48.114;11.694;2022-12-29T04:53:13;6.90;61.30
16503;DHT22;53067;48.114;11.694;2022-12-29T04:55:40;6.90;60.90
16503;DHT22;53067;48.114;11.694;2022-12-29T04:58:08;6.90;61.40
16503;DHT22;53067;48.114;11.694;2022-12-29T05:00:36;6.90;60.90
16503;DHT22;53067;48.114;11.694;2022-12-29T05:03:03;6.90;60.60
16503;DHT22;53067;48.114;11.694;2022-12-29T05:05:31;7.00;60.40
16503;DHT22;53067;48.114;11.694;2022-12-29T05:07:58;7.00;60.30
16503;DHT22;53067;48.114;11.694;2022-12-29T05:10:26;7.10;60.20
16503;DHT22;53067;48.114;11.694;2022-12-29T05:12:53;7.10;60.30
16503;DHT22;53067;48.114;11.694;2022-12-29T05:15:21;7.20;60.30
16503;DHT22;53067;48.114;11.694;2022-12-29T05:17:49;7.20;60.60
16503;DHT22;53067;48.114;11.694;2022-12-29T05:20:16;7.20;60.70
16503;DHT22;53067;48.114;11.694;2022-12-29T05:22:44;7.20;60.50
16503;DHT22;53067;48.114;11.694;2022-12-29T05:25:11;7.20;60.60
16503;DHT22;53067;48.114;11.694;2022-12-29T05:27:39;7.20;60.20
16503;DHT22;53067;48.114;11.694;2022-12-29T05:30:07;7.20;60.30
16503;DHT22;53067;48.114;11.694;2022-12-29T05:32:35;7.20;60.50
16503;DHT22;53067;48.114;11.694;2022-12-29T05:35:03;7.20;60.70
16503;DHT22;53067;48.114;11.694;2022-12-29T05:37:31;7.30;60.70
16503;DHT22;53067;48.114;11.694;2022-12-29T05:39:58;7.30;60.30
16503;DHT22;53067;48.114;11.694;2022-12-29T05:42:26;7.30;60.00
16503;DHT22;53067;48.114;11.694;2022-12-29T05:44:53;7.30;60.30
16503;DHT22;53067;48.114;11.694;2022-12-29T05:47:21;7.30;60.00
16503;DHT22;53067;48.114;11.694;2022-12-29T05:49:48;7.40;60.30
16503;DHT22;53067;48.114;11.694;2022-12-29T05:52:16;7.40;60.10
16503;DHT22;53067;48.114;11.694;2022-12-29T05:54:43;7.40;60.00
16503;DHT22;53067;48.114;11.694;2022-12-29T05:57:11;7.40;60.10
16503;DHT22;53067;48.114;11.694;2022-12-29T05:59:38;7.40;60.20
16503;DHT22;53067;48.114;11.694;2022-12-29T06:02:06;7.50;60.50
16503;DHT22;53067;48.114;11.694;2022-12-29T06:04:33;7.50;60.10
16503;DHT22;53067;48.114;11.694;2022-12-29T06:07:01;7.50;60.10
16503;DHT22;53067;48.114;11.694;2022-12-29T06:09:28;7.40;60.20
16503;DHT22;53067;48.114;11.694;2022-12-29T06:11:56;7.50;60.00
16503;DHT22;53067;48.114;11.694;2022-12-29T06:14:23;7.50;60.00
16503;DHT22;53067;48.114;11.694;2022-12-29T06:16:51;7.50;60.10
16503;DHT22;53067;48.114;11.694;2022-12-29T06:19:18;7.50;60.10
16503;DHT22;53067;48.114;11.694;2022-12-29T06:21:46;7.50;59.80
16503;DHT22;53067;48.114;11.694;2022-12-29T06:24:13;7.50;60.00
16503;DHT22;53067;48.114;11.694;2022-12-29T06:26:41;7.50;59.60
16503;DHT22;53067;48.114;11.694;2022-12-29T06:29:08;7.50;59.80
16503;DHT22;53067;48.114;11.694;2022-12-29T06:31:36;7.50;59.70
16503;DHT22;53067;48.114;11.694;2022-12-29T06:34:03;7.50;59.90
16503;DHT22;53067;48.114;11.694;2022-12-29T06:36:31;7.50;59.90
16503;DHT22;53067;48.114;11.694;2022-12-29T06:38:58;7.50;59.90
16503;DHT22;53067;48.114;11.694;2022-12-29T06:41:26;7.50;59.90
16503;DHT22;53067;48.114;11.694;2022-12-29T06:43:53;7.50;59.50
16503;DHT22;53067;48.114;11.694;2022-12-29T06:46:21;7.50;59.60
16503;DHT22;53067;48.114;11.694;2022-12-29T06:48:49;7.50;59.80
16503;DHT22;53067;48.114;11.694;2022-12-29T06:51:16;7.50;60.10
16503;DHT22;53067;48.114;11.694;2022-12-29T06:53:44;7.50;60.00
16503;DHT22;53067;48.114;11.694;2022-12-29T06:56:11;7.60;60.20
16503;DHT22;53067;48.114;11.694;2022-12-29T06:58:39;7.60;60.00
16503;DHT22;53067;48.114;11.694;2022-12-29T07:01:06;7.50;60.60
16503;DHT22;53067;48.114;11.694;2022-12-29T07:03:34;7.50;59.80
16503;DHT22;53067;48.114;11.694;2022-12-29T07:06:01;7.60;60.00
16503;DHT22;53067;48.114;11.694;2022-12-29T07:08:29;7.60;59.80
16503;DHT22;53067;48.114;11.694;2022-12-29T07:10:56;7.60;59.80
16503;DHT22;53067;48.114;11.694;2022-12-29T07:13:24;7.60;59.50
16503;DHT22;53067;48.114;11.694;2022-12-29T07:15:51;7.70;59.80
16503;DHT22;53067;48.114;11.694;2022-12-29T07:18:19;7.60;59.70
16503;DHT22;53067;48.114;11.694;2022-12-29T07:20:46;7.60;59.90
16503;DHT22;53067;48.114;11.694;2022-12-29T07:23:14;7.60;59.50
16503;DHT22;53067;48.114;11.694;2022-12-29T07:25:41;7.60;59.50
16503;DHT22;53067;48.114;11.694;2022-12-29T07:28:09;7.60;58.90
16503;DHT22;53067;48.114;11.694;2022-12-29T07:30:37;7.60;59.50
16503;DHT22;53067;48.114;11.694;2022-12-29T07:33:05;7.70;59.50
16503;DHT22;53067;48.114;11.694;2022-12-29T07:35:34;7.70;59.50
16503;DHT22;53067;48.114;11.694;2022-12-29T07:38:01;7.70;59.50
16503;DHT22;53067;48.114;11.694;2022-12-29T07:40:29;7.60;59.50
16503;DHT22;53067;48.114;11.694;2022-12-29T07:42:56;7.70;59.50
16503;DHT22;53067;48.114;11.694;2022-12-29T07:45:24;7.70;59.50
16503;DHT22;53067;48.114;11.694;2022-12-29T07:47:51;7.80;59.50
16503;DHT22;53067;48.114;11.694;2022-12-29T07:50:19;7.70;59.20
16503;DHT22;53067;48.114;11.694;2022-12-29T07:52:46;7.80;59.00
16503;DHT22;53067;48.114;11.694;2022-12-29T07:55:15;7.80;59.10
16503;DHT22;53067;48.114;11.694;2022-12-29T07:57:43;7.80;59.10
16503;DHT22;53067;48.114;11.694;2022-12-29T08:00:11;8.00;59.30
16503;DHT22;53067;48.114;11.694;2022-12-29T08:02:59;7.80;59.20
16503;DHT22;53067;48.114;11.694;2022-12-29T08:05:27;7.70;59.10
16503;DHT22;53067;48.114;11.694;2022-12-29T08:07:54;7.70;59.20
16503;DHT22;53067;48.114;11.694;2022-12-29T08:10:23;7.70;58.90
16503;DHT22;53067;48.114;11.694;2022-12-29T08:12:50;7.70;59.30
16503;DHT22;53067;48.114;11.694;2022-12-29T08:15:18;7.70;59.50
16503;DHT22;53067;48.114;11.694;2022-12-29T08:17:45;7.80;59.00
16503;DHT22;53067;48.114;11.694;2022-12-29T08:20:13;7.80;58.80
16503;DHT22;53067;48.114;11.694;2022-12-29T08:22:41;7.80;58.80
16503;DHT22;53067;48.114;11.694;2022-12-29T08:25:08;7.90;58.90
16503;DHT22;53067;48.114;11.694;2022-12-29T08:27:36;7.90;58.40
16503;DHT22;53067;48.114;11.694;2022-12-29T08:30:05;8.00;58.60
16503;DHT22;53067;48.114;11.694;2022-12-29T08:32:32;8.00;58.40
16503;DHT22;53067;48.114;11.694;2022-12-29T08:35:00;8.00;58.30
16503;DHT22;53067;48.114;11.694;2022-12-29T08:37:27;8.10;58.00
16503;DHT22;53067;48.114;11.694;2022-12-29T08:39:55;8.10;58.00
16503;DHT22;53067;48.114;11.694;2022-12-29T08:42:24;8.10;57.80
16503;DHT22;53067;48.114;11.694;2022-12-29T08:44:53;8.20;57.60
16503;DHT22;53067;48.114;11.694;2022-12-29T08:47:20;8.20;57.60
16503;DHT22;53067;48.114;11.694;2022-12-29T08:49:48;8.20;57.60
16503;DHT22;53067;48.114;11.694;2022-12-29T08:52:15;8.30;57.90
16503;DHT22;53067;48.114;11.694;2022-12-29T08:54:43;8.40;57.30
16503;DHT22;53067;48.114;11.694;2022-12-29T08:57:10;8.50;57.30
16503;DHT22;53067;48.114;11.694;2022-12-29T08:59:38;8.60;56.80
16503;DHT22;53067;48.114;11.694;2022-12-29T09:02:06;8.70;56.80
16503;DHT22;53067;48.114;11.694;2022-12-29T09:04:35;8.70;56.40
16503;DHT22;53067;48.114;11.694;2022-12-29T09:07:02;8.90;56.30
16503;DHT22;53067;48.114;11.694;2022-12-29T09:09:30;9.00;56.10
16503;DHT22;53067;48.114;11.694;2022-12-29T09:11:57;9.00;55.70
16503;DHT22;53067;48.114;11.694;2022-12-29T09:14:25;9.10;55.70
16503;DHT22;53067;48.114;11.694;2022-12-29T09:16:53;9.20;55.60
16503;DHT22;53067;48.114;11.694;2022-12-29T09:19:38;9.30;55.00
16503;DHT22;53067;48.114;11.694;2022-12-29T09:22:06;9.30;55.10
16503;DHT22;53067;48.114;11.694;2022-12-29T09:24:33;9.40;54.70
16503;DHT22;53067;48.114;11.694;2022-12-29T09:27:01;9.50;54.50
16503;DHT22;53067;48.114;11.694;2022-12-29T09:29:29;9.50;54.20
16503;DHT22;53067;48.114;11.694;2022-12-29T09:31:56;9.60;54.30
16503;DHT22;53067;48.114;11.694;2022-12-29T09:34:24;9.70;54.10
16503;DHT22;53067;48.114;11.694;2022-12-29T09:36:51;9.90;53.90
16503;DHT22;53067;48.114;11.694;2022-12-29T09:39:19;9.80;53.80
16503;DHT22;53067;48.114;11.694;2022-12-29T09:44:49;9.90;53.60
16503;DHT22;53067;48.114;11.694;2022-12-29T09:47:17;10.00;54.00
16503;DHT22;53067;48.114;11.694;2022-12-29T09:49:57;10.10;53.70
16503;DHT22;53067;48.114;11.694;2022-12-29T09:52:41;10.10;53.40
16503;DHT22;53067;48.114;11.694;2022-12-29T09:55:22;10.40;52.90
16503;DHT22;53067;48.114;11.694;2022-12-29T09:58:05;10.70;52.60
16503;DHT22;53067;48.114;11.694;2022-12-29T10:00:40;10.90;52.10
16503;DHT22;53067;48.114;11.694;2022-12-29T10:03:19;11.00;51.90
16503;DHT22;53067;48.114;11.694;2022-12-29T10:05:56;11.10;51.00
16503;DHT22;53067;48.114;11.694;2022-12-29T10:08:44;11.10;50.80
16503;DHT22;53067;48.114;11.694;2022-12-29T10:17:05;11.20;50.40
16503;DHT22;53067;48.114;11.694;2022-12-29T10:20:00;11.20;50.30
16503;DHT22;53067;48.114;11.694;2022-12-29T10:25:20;11.10;50.40
16503;DHT22;53067;48.114;11.694;2022-12-29T10:27:50;11.20;50.70
16503;DHT22;53067;48.114;11.694;2022-12-29T10:30:18;11.20;51.00
16503;DHT22;53067;48.114;11.694;2022-12-29T10:32:58;11.20;51.80
16503;DHT22;53067;48.114;11.694;2022-12-29T10:35:34;11.30;51.30
16503;DHT22;53067;48.114;11.694;2022-12-29T10:38:29;11.30;50.80
16503;DHT22;53067;48.114;11.694;2022-12-29T10:41:51;11.30;48.70
16503;DHT22;53067;48.114;11.694;2022-12-29T10:43:56;11.40;46.90
16503;DHT22;53067;48.114;11.694;2022-12-29T10:46:29;11.50;45.90
16503;DHT22;53067;48.114;11.694;2022-12-29T10:48:58;11.60;44.40
16503;DHT22;53067;48.114;11.694;2022-12-29T10:51:31;11.70;44.10
16503;DHT22;53067;48.114;11.694;2022-12-29T10:54:11;11.90;44.20
16503;DHT22;53067;48.114;11.694;2022-12-29T10:59:23;12.30;43.70
16503;DHT22;53067;48.114;11.694;2022-12-29T11:04:53;12.80;41.70
16503;DHT22;53067;48.114;11.694;2022-12-29T11:07:20;12.90;41.80
16503;DHT22;53067;48.114;11.694;2022-12-29T11:09:48;13.20;41.50
16503;DHT22;53067;48.114;11.694;2022-12-29T11:12:30;13.40;40.40
16503;DHT22;53067;48.114;11.694;2022-12-29T11:17:59;14.00;39.40
16503;DHT22;53067;48.114;11.694;2022-12-29T11:20:37;14.20;38.60
16503;DHT22;53067;48.114;11.694;2022-12-29T11:23:20;14.40;38.30
16503;DHT22;53067;48.114;11.694;2022-12-29T11:25:34;14.70;37.00
16503;DHT22;53067;48.114;11.694;2022-12-29T11:28:13;15.10;37.10
16503;DHT22;53067;48.114;11.694;2022-12-29T11:30:32;15.50;36.00
16503;DHT22;53067;48.114;11.694;2022-12-29T11:33:02;16.10;35.70
16503;DHT22;53067;48.114;11.694;2022-12-29T11:35:34;16.50;33.90
16503;DHT22;53067;48.114;11.694;2022-12-29T11:38:02;16.70;32.80
16503;DHT22;53067;48.114;11.694;2022-12-29T11:40:32;16.90;33.10
16503;DHT22;53067;48.114;11.694;2022-12-29T11:43:02;17.30;32.70
16503;DHT22;53067;48.114;11.694;2022-12-29T11:45:35;17.50;32.50
16503;DHT22;53067;48.114;11.694;2022-12-29T11:50:57;18.20;30.60
16503;DHT22;53067;48.114;11.694;2022-12-29T11:53:44;18.40;30.10
16503;DHT22;53067;48.114;11.694;2022-12-29T11:56:21;18.60;30.00
16503;DHT22;53067;48.114;11.694;2022-12-29T11:58:44;18.80;28.80
16503;DHT22;53067;48.114;11.694;2022-12-29T12:01:15;18.20;29.20
16503;DHT22;53067;48.114;11.694;2022-12-29T12:03:56;17.90;30.00
16503;DHT22;53067;48.114;11.694;2022-12-29T12:06:23;17.80;29.50
16503;DHT22;53067;48.114;11.694;2022-12-29T12:08:55;17.90;29.60
16503;DHT22;53067;48.114;11.694;2022-12-29T12:11:26;18.10;29.30
16503;DHT22;53067;48.114;11.694;2022-12-29T12:14:04;18.20;29.10
16503;DHT22;53067;48.114;11.694;2022-12-29T12:16:39;18.40;28.90
16503;DHT22;53067;48.114;11.694;2022-12-29T12:22:03;18.40;28.40
16503;DHT22;53067;48.114;11.694;2022-12-29T12:24:49;18.30;28.90
16503;DHT22;53067;48.114;11.694;2022-12-29T12:27:39;18.20;29.30
16503;DHT22;53067;48.114;11.694;2022-12-29T12:30:15;18.50;29.60
16503;DHT22;53067;48.114;11.694;2022-12-29T12:33:58;18.80;28.90
16503;DHT22;53067;48.114;11.694;2022-12-29T12:38:35;20.20;27.80
16503;DHT22;53067;48.114;11.694;2022-12-29T12:41:26;21.20;26.20
16503;DHT22;53067;48.114;11.694;2022-12-29T12:49:54;23.50;23.30
16503;DHT22;53067;48.114;11.694;2022-12-29T12:58:32;24.20;22.20
16503;DHT22;53067;48.114;11.694;2022-12-29T13:06:38;22.40;24.50
16503;DHT22;53067;48.114;11.694;2022-12-29T13:09:12;21.60;25.60
16503;DHT22;53067;48.114;11.694;2022-12-29T13:17:02;19.40;28.20
16503;DHT22;53067;48.114;11.694;2022-12-29T13:22:37;18.40;29.70
16503;DHT22;53067;48.114;11.694;2022-12-29T13:25:25;18.00;30.20
16503;DHT22;53067;48.114;11.694;2022-12-29T13:36:43;16.20;34.00
16503;DHT22;53067;48.114;11.694;2022-12-29T13:39:19;16.00;34.70
16503;DHT22;53067;48.114;11.694;2022-12-29T13:41:55;15.90;35.50
16503;DHT22;53067;48.114;11.694;2022-12-29T13:44:34;15.70;35.70
16503;DHT22;53067;48.114;11.694;2022-12-29T13:49:53;15.50;36.40
16503;DHT22;53067;48.114;11.694;2022-12-29T13:55:35;15.10;37.50
16503;DHT22;53067;48.114;11.694;2022-12-29T13:58:09;15.00;37.30
16503;DHT22;53067;48.114;11.694;2022-12-29T14:00:43;14.80;38.10
16503;DHT22;53067;48.114;11.694;2022-12-29T14:03:44;14.70;38.40
16503;DHT22;53067;48.114;11.694;2022-12-29T14:06:15;14.60;39.60
16503;DHT22;53067;48.114;11.694;2022-12-29T14:08:43;14.40;39.30
16503;DHT22;53067;48.114;11.694;2022-12-29T14:11:18;14.30;40.10
16503;DHT22;53067;48.114;11.694;2022-12-29T14:13:44;14.20;40.40
16503;DHT22;53067;48.114;11.694;2022-12-29T14:16:34;14.10;40.20
16503;DHT22;53067;48.114;11.694;2022-12-29T14:19:16;14.00;40.40
16503;DHT22;53067;48.114;11.694;2022-12-29T14:21:56;13.90;40.70
16503;DHT22;53067;48.114;11.694;2022-12-29T14:29:43;13.60;41.50
16503;DHT22;53067;48.114;11.694;2022-12-29T14:34:57;13.50;41.60
16503;DHT22;53067;48.114;11.694;2022-12-29T14:37:27;13.40;42.40
16503;DHT22;53067;48.114;11.694;2022-12-29T14:42:47;13.30;44.00
16503;DHT22;53067;48.114;11.694;2022-12-29T14:47:52;13.10;46.00
16503;DHT22;53067;48.114;11.694;2022-12-29T14:52:55;12.90;47.50
16503;DHT22;53067;48.114;11.694;2022-12-29T14:55:46;12.80;48.40
16503;DHT22;53067;48.114;11.694;2022-12-29T14:58:49;12.70;48.60
16503;DHT22;53067;48.114;11.694;2022-12-29T15:04:18;12.50;49.40
16503;DHT22;53067;48.114;11.694;2022-12-29T15:06:48;12.40;50.20
16503;DHT22;53067;48.114;11.694;2022-12-29T15:09:31;12.20;50.60
16503;DHT22;53067;48.114;11.694;2022-12-29T15:12:04;12.10;51.00
16503;DHT22;53067;48.114;11.694;2022-12-29T15:17:09;12.00;50.90
16503;DHT22;53067;48.114;11.694;2022-12-29T15:19:31;11.90;51.40
16503;DHT22;53067;48.114;11.694;2022-12-29T15:21:58;11.90;51.80
16503;DHT22;53067;48.114;11.694;2022-12-29T15:24:27;11.80;51.70
16503;DHT22;53067;48.114;11.694;2022-12-29T15:26:56;11.70;50.60
16503;DHT22;53067;48.114;11.694;2022-12-29T15:29:38;11.70;49.70
16503;DHT22;53067;48.114;11.694;2022-12-29T15:32:21;11.70;50.20
16503;DHT22;53067;48.114;11.694;2022-12-29T15:34:54;11.70;48.50
16503;DHT22;53067;48.114;11.694;2022-12-29T15:37:27;11.60;48.30
16503;DHT22;53067;48.114;11.694;2022-12-29T15:39:55;11.60;48.20
16503;DHT22;53067;48.114;11.694;2022-12-29T15:42:43;11.50;48.10
16503;DHT22;53067;48.114;11.694;2022-12-29T15:45:09;11.50;48.80
16503;DHT22;53067;48.114;11.694;2022-12-29T15:47:36;11.50;48.70
16503;DHT22;53067;48.114;11.694;2022-12-29T15:50:06;11.50;48.40
16503;DHT22;53067;48.114;11.694;2022-12-29T15:52:34;11.40;48.80
16503;DHT22;53067;48.114;11.694;2022-12-29T15:55:18;11.40;49.40
16503;DHT22;53067;48.114;11.694;2022-12-29T15:57:41;11.40;49.10
16503;DHT22;53067;48.114;11.694;2022-12-29T16:00:28;11.30;48.50
16503;DHT22;53067;48.114;11.694;2022-12-29T16:02:53;11.30;48.60
16503;DHT22;53067;48.114;11.694;2022-12-29T16:05:21;11.20;49.10
16503;DHT22;53067;48.114;11.694;2022-12-29T16:07:58;11.20;49.20
16503;DHT22;53067;48.114;11.694;2022-12-29T16:10:39;11.20;49.50
16503;DHT22;53067;48.114;11.694;2022-12-29T16:13:04;11.20;49.50
16503;DHT22;53067;48.114;11.694;2022-12-29T16:15:33;11.10;49.10
16503;DHT22;53067;48.114;11.694;2022-12-29T16:18:01;11.10;49.30
16503;DHT22;53067;48.114;11.694;2022-12-29T16:20:39;11.10;49.40
16503;DHT22;53067;48.114;11.694;2022-12-29T16:23:17;11.10;49.50
16503;DHT22;53067;48.114;11.694;2022-12-29T16:25:41;11.20;49.50
16503;DHT22;53067;48.114;11.694;2022-12-29T16:28:20;11.20;49.90
16503;DHT22;53067;48.114;11.694;2022-12-29T16:33:54;11.20;50.10
16503;DHT22;53067;48.114;11.694;2022-12-29T16:36:32;11.20;50.00
16503;DHT22;53067;48.114;11.694;2022-12-29T16:39:11;11.20;50.30
16503;DHT22;53067;48.114;11.694;2022-12-29T16:41:33;11.20;50.30
16503;DHT22;53067;48.114;11.694;2022-12-29T16:44:28;11.20;50.30
16503;DHT22;53067;48.114;11.694;2022-12-29T16:46:59;11.20;50.30
16503;DHT22;53067;48.114;11.694;2022-12-29T16:49:27;11.30;50.50
16503;DHT22;53067;48.114;11.694;2022-12-29T16:51:55;11.30;50.50
16503;DHT22;53067;48.114;11.694;2022-12-29T16:54:35;11.30;50.80
16503;DHT22;53067;48.114;11.694;2022-12-29T16:57:03;11.30;51.10
16503;DHT22;53067;48.114;11.694;2022-12-29T16:59:37;11.30;51.20
16503;DHT22;53067;48.114;11.694;2022-12-29T17:02:16;11.30;51.30
16503;DHT22;53067;48.114;11.694;2022-12-29T17:04:44;11.40;51.50
16503;DHT22;53067;48.114;11.694;2022-12-29T17:07:21;11.40;51.90
16503;DHT22;53067;48.114;11.694;2022-12-29T17:09:50;11.30;51.70
16503;DHT22;53067;48.114;11.694;2022-12-29T17:12:22;11.30;52.20
16503;DHT22;53067;48.114;11.694;2022-12-29T17:17:36;11.30;52.30
16503;DHT22;53067;48.114;11.694;2022-12-29T17:20:08;11.20;53.10
16503;DHT22;53067;48.114;11.694;2022-12-29T17:22:34;11.20;53.40
16503;DHT22;53067;48.114;11.694;2022-12-29T17:25:02;11.10;53.00
16503;DHT22;53067;48.114;11.694;2022-12-29T17:27:38;11.10;53.80
16503;DHT22;53067;48.114;11.694;2022-12-29T17:30:18;11.00;53.30
16503;DHT22;53067;48.114;11.694;2022-12-29T17:32:51;11.00;53.40
16503;DHT22;53067;48.114;11.694;2022-12-29T17:35:21;11.00;53.60
16503;DHT22;53067;48.114;11.694;2022-12-29T17:37:49;10.90;54.30
16503;DHT22;53067;48.114;11.694;2022-12-29T17:40:29;10.90;54.70
16503;DHT22;53067;48.114;11.694;2022-12-29T17:42:59;10.90;55.20
16503;DHT22;53067;48.114;11.694;2022-12-29T17:45:31;10.80;55.30
16503;DHT22;53067;48.114;11.694;2022-12-29T17:47:59;10.70;54.80
16503;DHT22;53067;48.114;11.694;2022-12-29T17:50:29;10.70;54.90
16503;DHT22;53067;48.114;11.694;2022-12-29T17:53:02;10.70;54.80
16503;DHT22;53067;48.114;11.694;2022-12-29T17:55:30;10.70;54.80
16503;DHT22;53067;48.114;11.694;2022-12-29T17:57:58;10.70;55.10
16503;DHT22;53067;48.114;11.694;2022-12-29T18:00:28;10.70;54.90
16503;DHT22;53067;48.114;11.694;2022-12-29T18:02:57;10.70;55.60
16503;DHT22;53067;48.114;11.694;2022-12-29T18:05:27;10.70;56.00